Time;durP1;ratioP1;P1;durP2;ratioP2;P2;SDS_P1;SDS_P2;PMS_P1;PMS_P2;Temp;Humidity;BMP_temperature;BMP_pressure;BME280_temperature;BME280_humidity;BME280_pressure;Samples;Min_cycle;Max_cycle;Signal;HPM_P1;HPM_P2
2023/08/25 00:01:16;;;;;;;5.80;5.30;;;28.80;62.20;;;;;;5033482;28;20512;-73
2023/08/25 00:03:41;;;;;;;5.83;5.23;;;28.80;62.30;;;;;;5015709;28;20434;-71
2023/08/25 00:06:07;;;;;;;5.97;5.37;;;28.80;62.30;;;;;;5033756;28;20798;-72
2023/08/25 00:08:33;;;;;;;6.10;5.50;;;28.80;62.30;;;;;;5015502;28;20187;-72
2023/08/25 00:10:58;;;;;;;6.23;5.40;;;28.80;62.20;;;;;;5033367;28;20214;-71
2023/08/25 00:13:24;;;;;;;7.40;5.30;;;28.80;62.30;;;;;;5033338;28;20579;-71
2023/08/25 00:15:50;;;;;;;5.70;4.70;;;28.80;62.30;;;;;;5033412;28;20652;-72
2023/08/25 00:18:16;;;;;;;5.93;5.30;;;28.80;62.30;;;;;;5033167;28;20174;-71
2023/08/25 00:20:41;;;;;;;6.57;5.23;;;28.80;62.30;;;;;;5032996;28;20734;-71
2023/08/25 00:23:07;;;;;;;5.37;4.87;;;28.80;62.30;;;;;;5033230;28;20167;-72
2023/08/25 00:25:33;;;;;;;5.80;5.20;;;28.80;62.30;;;;;;5033195;28;20171;-72
2023/08/25 00:27:59;;;;;;;5.53;5.03;;;28.80;62.30;;;;;;5033142;28;20517;-72
2023/08/25 00:30:25;;;;;;;6.13;5.07;;;28.80;62.30;;;;;;5033032;28;20676;-72
2023/08/25 00:32:50;;;;;;;6.30;5.27;;;28.80;62.30;;;;;;5033025;28;20237;-72
2023/08/25 00:35:16;;;;;;;5.77;4.93;;;28.80;62.30;;;;;;5033122;28;20171;-71
2023/08/25 00:37:42;;;;;;;5.87;5.27;;;28.80;62.30;;;;;;5032848;28;20184;-72
2023/08/25 00:40:08;;;;;;;5.57;5.07;;;28.80;62.40;;;;;;5014957;28;20547;-71
2023/08/25 00:42:34;;;;;;;7.13;5.30;;;28.80;62.30;;;;;;5015077;28;20171;-73
2023/08/25 00:44:59;;;;;;;5.30;4.80;;;28.80;62.30;;;;;;5032750;28;20463;-72
2023/08/25 00:47:25;;;;;;;5.47;4.97;;;28.80;62.40;;;;;;5048220;28;20648;-72
2023/08/25 00:49:51;;;;;;;6.30;5.53;;;28.80;62.30;;;;;;5032723;28;20176;-72
2023/08/25 00:52:19;;;;;;;5.90;5.03;;;28.80;62.30;;;;;;5032627;28;20615;-72
2023/08/25 00:54:48;;;;;;;4.93;4.47;;;28.80;62.30;;;;;;5032663;28;20418;-71
2023/08/25 00:57:14;;;;;;;4.80;4.40;;;28.80;62.30;;;;;;5014778;28;20425;-72
2023/08/25 00:59:40;;;;;;;6.13;5.30;;;28.80;62.30;;;;;;5047814;28;20931;-72
2023/08/25 01:02:07;;;;;;;5.43;4.93;;;28.80;62.40;;;;;;5014602;28;20227;-71
2023/08/25 01:04:33;;;;;;;5.80;4.80;;;28.80;62.40;;;;;;5032757;28;20505;-72
2023/08/25 01:07:00;;;;;;;5.20;4.70;;;28.80;62.30;;;;;;5032452;28;20923;-72
2023/08/25 01:09:26;;;;;;;6.23;5.70;;;28.80;62.40;;;;;;5032770;28;20415;-71
2023/08/25 01:12:08;;;;;;;5.40;4.90;;;28.80;62.40;;;;;;5032377;28;20442;-72
2023/08/25 01:14:58;;;;;;;4.33;3.93;;;28.80;62.40;;;;;;5032440;28;20468;-73
2023/08/25 01:17:51;;;;;;;5.30;4.80;;;28.80;62.40;;;;;;5032253;28;20497;-72
2023/08/25 01:20:19;;;;;;;5.63;4.57;;;28.80;62.40;;;;;;5014631;28;20422;-72
2023/08/25 01:22:58;;;;;;;5.50;5.00;;;28.80;62.40;;;;;;5032676;28;20428;-72
2023/08/25 01:25:26;;;;;;;6.27;5.07;;;28.80;62.40;;;;;;5014727;28;20398;-72
2023/08/25 01:27:52;;;;;;;6.23;5.43;;;28.80;62.40;;;;;;5032278;28;20757;-72
2023/08/25 01:30:19;;;;;;;5.17;4.20;;;28.80;62.40;;;;;;5032323;28;20418;-72
2023/08/25 01:32:45;;;;;;;5.47;4.97;;;28.80;62.40;;;;;;5032312;28;20422;-72
2023/08/25 01:35:14;;;;;;;5.80;5.30;;;28.80;62.40;;;;;;5014646;28;20415;-72
2023/08/25 01:37:47;;;;;;;4.33;3.93;;;28.80;62.40;;;;;;5032199;28;20168;-72
2023/08/25 01:40:27;;;;;;;5.27;4.77;;;28.80;62.40;;;;;;5032109;28;20402;-71
2023/08/25 01:42:55;;;;;;;5.07;4.57;;;28.80;62.40;;;;;;5032252;28;20394;-72
2023/08/25 01:45:23;;;;;;;4.70;4.30;;;28.80;62.40;;;;;;5032218;28;20421;-72
2023/08/25 01:47:50;;;;;;;5.10;4.43;;;28.80;62.50;;;;;;5032236;28;20822;-72
2023/08/25 01:50:19;;;;;;;5.27;4.77;;;28.80;62.40;;;;;;5047419;28;20406;-71
2023/08/25 01:52:45;;;;;;;5.40;4.90;;;28.80;62.40;;;;;;5032349;28;20418;-72
2023/08/25 01:55:11;;;;;;;5.83;5.17;;;28.80;62.40;;;;;;5032121;28;20415;-72
2023/08/25 01:57:37;;;;;;;5.43;4.93;;;28.80;62.40;;;;;;5032119;28;20406;-72
2023/08/25 02:00:03;;;;;;;4.77;4.37;;;28.80;62.40;;;;;;5031958;28;20267;-72
2023/08/25 02:02:29;;;;;;;5.00;4.13;;;28.80;62.40;;;;;;5031948;28;20457;-72
2023/08/25 02:04:54;;;;;;;4.90;4.40;;;28.80;62.40;;;;;;5047370;28;20457;-72
2023/08/25 02:07:20;;;;;;;4.73;4.33;;;28.80;62.40;;;;;;5014309;28;20176;-72
2023/08/25 02:09:45;;;;;;;5.17;4.67;;;28.80;62.40;;;;;;5031914;28;20221;-72
2023/08/25 02:12:11;;;;;;;4.77;4.10;;;28.80;62.40;;;;;;5032037;28;20192;-72
2023/08/25 02:14:36;;;;;;;4.97;4.50;;;28.80;62.40;;;;;;5031877;28;20211;-72
2023/08/25 02:17:02;;;;;;;4.97;4.47;;;28.80;62.40;;;;;;5014226;28;20183;-72
2023/08/25 02:19:27;;;;;;;4.80;4.10;;;28.80;62.40;;;;;;5031890;28;20258;-72
2023/08/25 02:21:53;;;;;;;5.10;4.60;;;28.80;62.50;;;;;;5047194;28;20204;-72
2023/08/25 02:24:19;;;;;;;5.43;4.83;;;28.80;62.40;;;;;;5031773;28;20536;-72
2023/08/25 02:26:44;;;;;;;4.37;3.97;;;28.80;62.40;;;;;;5031766;28;20168;-72
2023/08/25 02:29:10;;;;;;;4.30;3.90;;;28.80;62.40;;;;;;5033793;28;20176;-72
2023/08/25 02:31:36;;;;;;;4.37;3.97;;;28.80;62.40;;;;;;5035282;28;20191;-72
2023/08/25 02:34:01;;;;;;;5.30;4.80;;;28.80;62.40;;;;;;5035551;28;20417;-72
2023/08/25 02:36:27;;;;;;;5.50;5.00;;;28.80;63.30;;;;;;5035142;28;20180;-72
2023/08/25 02:38:52;;;;;;;4.50;4.10;;;28.80;62.50;;;;;;5034981;28;20176;-72
2023/08/25 02:41:18;;;;;;;4.60;4.20;;;28.80;62.40;;;;;;5017194;28;20218;-73
2023/08/25 02:43:43;;;;;;;5.00;4.40;;;28.80;62.50;;;;;;5035155;28;20171;-72
2023/08/25 02:46:10;;;;;;;4.57;4.03;;;28.80;62.50;;;;;;5035271;28;20183;-72
2023/08/25 02:48:36;;;;;;;5.90;4.50;;;28.80;62.40;;;;;;5035029;28;20159;-72
2023/08/25 02:51:01;;;;;;;4.50;4.10;;;28.80;62.50;;;;;;5035058;28;20426;-72
2023/08/25 02:53:27;;;;;;;4.93;4.43;;;28.80;62.50;;;;;;5034950;28;20526;-73
2023/08/25 02:55:52;;;;;;;4.90;4.40;;;28.80;62.50;;;;;;5034767;28;20172;-72
2023/08/25 02:58:18;;;;;;;5.07;4.60;;;28.80;62.50;;;;;;5034827;28;20649;-71
2023/08/25 03:00:43;;;;;;;4.67;4.27;;;28.80;62.50;;;;;;5017067;28;20211;-72
2023/08/25 03:03:09;;;;;;;5.10;4.70;;;28.80;62.50;;;;;;5016912;28;20195;-72
2023/08/25 03:05:35;;;;;;;5.00;4.20;;;28.80;62.50;;;;;;5034859;28;20167;-72
2023/08/25 03:08:01;;;;;;;4.40;3.80;;;28.80;62.50;;;;;;5016841;28;20175;-72
2023/08/25 03:10:26;;;;;;;4.93;4.37;;;28.80;62.50;;;;;;5034794;28;20465;-72
2023/08/25 03:12:52;;;;;;;4.43;4.00;;;28.80;62.50;;;;;;5034558;28;20186;-72
2023/08/25 03:15:18;;;;;;;4.60;4.20;;;28.80;62.50;;;;;;5034790;28;20321;-72
2023/08/25 03:17:43;;;;;;;4.00;3.67;;;28.80;62.50;;;;;;5016683;28;20215;-72
2023/08/25 03:20:09;;;;;;;4.70;4.20;;;28.80;62.50;;;;;;5034305;28;20175;-72
2023/08/25 03:22:35;;;;;;;3.97;3.57;;;28.70;62.40;;;;;;5034371;28;20183;-72
2023/08/25 03:25:00;;;;;;;4.30;3.70;;;28.80;62.50;;;;;;5034305;28;20756;-72
2023/08/25 03:27:27;;;;;;;3.57;3.27;;;28.80;62.50;;;;;;5034222;28;20249;-73
2023/08/25 03:29:53;;;;;;;4.30;3.90;;;28.80;62.50;;;;;;5034284;28;20690;-72
2023/08/25 03:32:18;;;;;;;3.73;3.40;;;28.80;62.50;;;;;;5034124;28;20434;-72
2023/08/25 03:34:44;;;;;;;4.10;3.43;;;28.80;62.50;;;;;;5034134;28;20680;-72
2023/08/25 03:37:11;;;;;;;3.97;3.63;;;28.80;62.50;;;;;;5034110;28;20179;-72
2023/08/25 03:39:37;;;;;;;3.60;3.30;;;28.80;62.50;;;;;;5033512;28;20184;-72
2023/08/25 03:42:03;;;;;;;4.27;3.30;;;28.80;62.40;;;;;;5033767;28;20516;-71
2023/08/25 03:44:28;;;;;;;4.53;4.07;;;28.70;62.40;;;;;;5033926;28;20180;-72
2023/08/25 03:46:54;;;;;;;4.00;3.70;;;28.70;62.40;;;;;;5033763;28;20648;-72
2023/08/25 03:49:19;;;;;;;3.90;3.43;;;28.70;62.40;;;;;;5049273;28;20184;-72
2023/08/25 03:51:45;;;;;;;3.73;3.40;;;28.70;62.40;;;;;;5033656;28;20199;-72
2023/08/25 03:54:11;;;;;;;4.03;3.63;;;28.70;62.40;;;;;;5033725;28;20616;-71
2023/08/25 03:56:38;;;;;;;4.07;3.27;;;28.70;62.40;;;;;;5033701;28;20186;-72
2023/08/25 03:59:03;;;;;;;3.80;3.50;;;28.70;62.40;;;;;;5033626;28;20417;-72
2023/08/25 04:01:29;;;;;;;3.70;3.10;;;28.70;62.40;;;;;;5033890;28;20466;-72
2023/08/25 04:03:54;;;;;;;3.90;3.43;;;28.70;62.40;;;;;;5032214;28;20192;-73
2023/08/25 04:06:20;;;;;;;4.10;3.33;;;28.70;62.40;;;;;;5033526;28;20545;-73
2023/08/25 04:08:45;;;;;;;3.93;3.63;;;28.70;62.30;;;;;;5033630;28;20183;-72
2023/08/25 04:11:11;;;;;;;4.17;2.80;;;28.70;62.40;;;;;;5033472;28;20200;-73
2023/08/25 04:13:36;;;;;;;3.67;3.30;;;28.70;63.20;;;;;;5033280;28;20172;-73
2023/08/25 04:16:02;;;;;;;4.07;3.00;;;28.70;62.30;;;;;;5033282;28;20624;-74
2023/08/25 04:18:28;;;;;;;3.43;3.13;;;28.70;62.30;;;;;;5033278;28;20218;-73
2023/08/25 04:20:53;;;;;;;3.83;3.53;;;28.70;62.30;;;;;;5033143;28;20301;-73
2023/08/25 04:23:19;;;;;;;3.23;2.93;;;28.70;62.30;;;;;;5033220;28;20187;-72
2023/08/25 04:25:44;;;;;;;3.83;3.53;;;28.70;62.30;;;;;;5015452;28;20275;-73
2023/08/25 04:28:10;;;;;;;4.20;3.43;;;28.70;62.30;;;;;;5033080;28;20174;-73
2023/08/25 04:30:36;;;;;;;3.20;3.00;;;28.70;62.30;;;;;;5033080;28;20202;-73
2023/08/25 04:33:02;;;;;;;3.10;2.80;;;28.70;62.40;;;;;;5033047;28;20700;-73
2023/08/25 04:35:27;;;;;;;4.07;3.03;;;28.70;62.30;;;;;;5033155;28;20176;-72
2023/08/25 04:37:53;;;;;;;3.20;2.90;;;28.70;62.30;;;;;;5033058;28;20641;-73
2023/08/25 04:40:20;;;;;;;4.03;3.17;;;28.70;62.30;;;;;;5032827;28;20180;-73
2023/08/25 04:42:46;;;;;;;2.83;2.53;;;28.70;62.30;;;;;;5015118;28;20186;-73
2023/08/25 04:45:13;;;;;;;3.53;2.87;;;28.70;62.30;;;;;;5033033;28;20406;-73
2023/08/25 04:47:39;;;;;;;3.47;3.17;;;28.70;62.30;;;;;;5031569;28;20179;-74
2023/08/25 04:50:07;;;;;;;3.23;2.70;;;28.70;62.30;;;;;;5032740;28;20564;-72
2023/08/25 04:52:34;;;;;;;3.20;2.90;;;28.70;62.20;;;;;;5032331;28;20548;-73
2023/08/25 04:55:00;;;;;;;3.40;3.10;;;28.70;62.30;;;;;;5032770;28;20493;-73
2023/08/25 04:57:26;;;;;;;3.60;3.30;;;28.70;62.30;;;;;;5048078;28;20480;-73
2023/08/25 04:59:51;;;;;;;3.00;2.70;;;28.70;62.20;;;;;;5032643;28;20960;-73
2023/08/25 05:02:17;;;;;;;6.23;3.40;;;28.70;62.20;;;;;;5032415;28;20212;-72
2023/08/25 05:04:43;;;;;;;4.93;2.90;;;28.70;62.20;;;;;;5032622;28;20203;-73
2023/08/25 05:07:09;;;;;;;3.07;2.80;;;28.70;62.10;;;;;;5032542;28;20172;-73
2023/08/25 05:09:34;;;;;;;5.00;3.53;;;28.70;62.20;;;;;;5032672;28;20422;-72
2023/08/25 05:12:00;;;;;;;3.10;2.83;;;28.70;62.20;;;;;;5032545;28;20199;-73
2023/08/25 05:14:25;;;;;;;3.20;2.63;;;28.70;62.10;;;;;;5032487;28;20179;-73
2023/08/25 05:16:51;;;;;;;3.20;2.90;;;28.70;62.10;;;;;;5032463;28;20187;-73
2023/08/25 05:19:17;;;;;;;2.53;2.30;;;28.70;62.20;;;;;;5033005;28;20172;-73
2023/08/25 05:21:42;;;;;;;3.00;2.70;;;28.70;62.10;;;;;;5032288;28;20623;-73
2023/08/25 05:24:19;;;;;;;2.47;2.27;;;28.70;62.10;;;;;;5032333;28;20179;-73
2023/08/25 05:26:51;;;;;;;3.60;3.30;;;28.70;62.20;;;;;;5032597;28;20598;-72
2023/08/25 05:29:20;;;;;;;3.93;3.07;;;28.70;62.20;;;;;;5032580;28;20402;-73
2023/08/25 05:31:46;;;;;;;2.70;2.40;;;28.70;62.20;;;;;;5032544;28;20489;-72
2023/08/25 05:34:11;;;;;;;3.40;2.60;;;28.70;62.10;;;;;;5032350;28;21275;-73
2023/08/25 05:36:37;;;;;;;5.23;2.40;;;28.70;62.10;;;;;;5032448;28;20270;-73
2023/08/25 05:39:03;;;;;;;2.97;2.67;;;28.70;62.10;;;;;;5032389;28;20262;-73
2023/08/25 05:41:28;;;;;;;2.70;2.50;;;28.70;62.10;;;;;;5032141;28;20334;-71
2023/08/25 05:43:54;;;;;;;4.00;2.80;;;28.70;62.10;;;;;;5032271;28;20183;-73
2023/08/25 05:46:20;;;;;;;2.90;2.60;;;28.70;62.10;;;;;;5032037;28;20595;-73
2023/08/25 05:48:45;;;;;;;3.93;2.20;;;28.70;62.10;;;;;;5032233;28;20644;-73
2023/08/25 05:51:11;;;;;;;3.10;2.43;;;28.70;62.10;;;;;;5032089;28;20668;-73
2023/08/25 05:53:36;;;;;;;2.90;2.60;;;28.70;62.10;;;;;;5032035;28;20183;-73
2023/08/25 05:56:02;;;;;;;2.63;2.43;;;28.70;62.10;;;;;;5032084;28;20211;-72
2023/08/25 05:58:28;;;;;;;2.40;2.20;;;28.70;62.10;;;;;;5032139;28;20175;-74
2023/08/25 06:00:54;;;;;;;2.40;2.20;;;28.70;62.10;;;;;;5021468;28;20703;-73
2023/08/25 06:03:20;;;;;;;3.73;2.40;;;28.70;62.10;;;;;;5014776;28;20216;-72
2023/08/25 06:05:51;;;;;;;3.90;2.43;;;28.70;62.10;;;;;;5016304;28;20418;-72
2023/08/25 06:08:17;;;;;;;3.00;2.70;;;28.70;62.00;;;;;;5016093;28;20159;-72
2023/08/25 06:10:43;;;;;;;3.20;2.40;;;28.70;62.10;;;;;;5015813;28;20439;-72
2023/08/25 06:13:09;;;;;;;2.63;2.43;;;28.70;62.10;;;;;;5015967;28;20988;-72
2023/08/25 06:15:35;;;;;;;3.07;2.77;;;28.70;62.10;;;;;;5015890;28;20208;-73
2023/08/25 06:18:01;;;;;;;3.27;2.60;;;28.70;62.10;;;;;;5015914;28;20180;-72
2023/08/25 06:20:27;;;;;;;3.00;2.17;;;28.70;62.10;;;;;;5015749;28;20807;-73
2023/08/25 06:22:53;;;;;;;3.17;2.10;;;28.70;62.10;;;;;;5016215;28;20412;-73
2023/08/25 06:25:18;;;;;;;3.07;2.67;;;28.80;62.10;;;;;;4998927;28;20634;-73
2023/08/25 06:27:44;;;;;;;3.00;2.40;;;28.70;62.00;;;;;;5016577;28;20184;-72
2023/08/25 06:30:13;;;;;;;2.50;2.30;;;28.70;62.00;;;;;;4998475;28;20265;-72
2023/08/25 06:32:38;;;;;;;2.63;2.43;;;28.70;62.00;;;;;;5016161;28;20259;-72
2023/08/25 06:35:04;;;;;;;2.30;2.10;;;28.80;62.10;;;;;;5015810;28;20446;-72
2023/08/25 06:37:30;;;;;;;3.60;2.70;;;28.80;62.10;;;;;;5031019;28;20183;-73
2023/08/25 06:39:55;;;;;;;2.97;2.20;;;28.80;62.10;;;;;;5015443;28;20399;-72
2023/08/25 06:42:21;;;;;;;2.63;2.03;;;28.80;62.10;;;;;;5016094;28;20200;-72
2023/08/25 06:44:47;;;;;;;3.93;2.77;;;28.80;62.10;;;;;;5015732;28;20200;-72
2023/08/25 06:47:12;;;;;;;2.40;2.10;;;28.80;62.00;;;;;;5015709;28;20172;-72
2023/08/25 06:49:38;;;;;;;3.47;2.77;;;28.80;62.00;;;;;;5015260;28;20250;-72
2023/08/25 06:52:04;;;;;;;2.43;2.20;;;28.80;62.00;;;;;;5013595;28;20299;-71
2023/08/25 06:54:30;;;;;;;2.80;2.30;;;28.80;62.00;;;;;;5015075;28;20169;-72
2023/08/25 06:56:56;;;;;;;2.90;2.60;;;28.80;62.00;;;;;;5015173;28;20477;-73
2023/08/25 06:59:22;;;;;;;3.43;1.97;;;28.80;62.00;;;;;;5015150;28;20259;-73
2023/08/25 07:01:49;;;;;;;2.40;2.20;;;28.80;62.00;;;;;;5015145;28;20204;-73
2023/08/25 07:04:15;;;;;;;2.47;2.23;;;28.80;62.00;;;;;;5015335;28;20869;-71
2023/08/25 07:06:40;;;;;;;3.03;2.30;;;28.80;62.00;;;;;;5014546;28;20411;-74
2023/08/25 07:09:06;;;;;;;2.33;2.13;;;28.80;62.10;;;;;;5015663;28;20812;-73
2023/08/25 07:11:32;;;;;;;3.33;2.70;;;28.80;62.00;;;;;;4997253;28;20207;-73
2023/08/25 07:13:58;;;;;;;2.60;2.00;;;28.80;62.00;;;;;;5014346;28;20179;-72
2023/08/25 07:16:25;;;;;;;6.20;2.20;;;28.80;62.00;;;;;;5014963;28;20200;-71
2023/08/25 07:18:50;;;;;;;3.20;2.37;;;28.80;62.00;;;;;;5015187;28;20423;-71
2023/08/25 07:21:16;;;;;;;2.57;2.37;;;28.80;62.10;;;;;;5014702;28;20542;-72
2023/08/25 07:23:42;;;;;;;2.93;2.20;;;28.80;62.10;;;;;;5014967;28;20199;-74
2023/08/25 07:26:08;;;;;;;3.30;2.60;;;28.80;62.00;;;;;;5014827;28;20255;-72
2023/08/25 07:28:34;;;;;;;4.10;2.70;;;28.90;62.20;;;;;;5012619;28;20965;-74
2023/08/25 07:31:00;;;;;;;2.40;1.90;;;28.90;62.10;;;;;;5013927;28;20470;-73
2023/08/25 07:33:26;;;;;;;3.57;2.47;;;28.80;62.10;;;;;;5013585;28;20176;-73
2023/08/25 07:35:52;;;;;;;4.40;2.17;;;28.90;62.20;;;;;;4995606;28;20186;-73
2023/08/25 07:38:18;;;;;;;2.77;2.43;;;28.90;62.20;;;;;;5013197;28;20514;-73
2023/08/25 07:40:43;;;;;;;3.20;2.30;;;28.90;62.20;;;;;;5012678;28;20505;-72
2023/08/25 07:43:09;;;;;;;2.53;2.10;;;28.90;62.20;;;;;;5013294;28;20188;-72
2023/08/25 07:45:36;;;;;;;2.53;2.07;;;28.90;62.20;;;;;;4995355;28;20227;-72
2023/08/25 07:48:01;;;;;;;3.07;2.40;;;28.90;62.20;;;;;;5013126;28;20187;-72
2023/08/25 07:50:29;;;;;;;2.87;2.57;;;28.90;62.20;;;;;;5012718;28;21027;-73
2023/08/25 07:52:55;;;;;;;2.83;2.63;;;28.90;62.20;;;;;;5012578;28;20252;-73
2023/08/25 07:55:21;;;;;;;3.40;2.50;;;28.90;62.20;;;;;;4995539;28;20621;-71
2023/08/25 07:57:47;;;;;;;2.20;2.00;;;28.90;62.20;;;;;;4995833;28;20419;-70
2023/08/25 08:00:15;;;;;;;2.40;2.10;;;28.90;62.20;;;;;;5013684;28;20447;-71
2023/08/25 08:02:48;;;;;;;3.47;2.70;;;28.90;62.20;;;;;;5013317;28;20439;-72
2023/08/25 08:05:18;;;;;;;3.07;2.77;;;28.90;62.20;;;;;;5013501;28;20415;-71
2023/08/25 08:07:45;;;;;;;2.37;2.10;;;28.90;62.20;;;;;;4995877;28;20423;-73
2023/08/25 08:10:11;;;;;;;2.67;1.90;;;28.90;62.30;;;;;;4995385;28;20416;-71
2023/08/25 08:12:38;;;;;;;3.20;2.20;;;28.90;62.30;;;;;;5012815;28;20950;-73
2023/08/25 08:15:06;;;;;;;3.57;3.03;;;28.90;62.30;;;;;;5012521;28;20417;-72
2023/08/25 08:17:31;;;;;;;3.20;2.43;;;28.90;62.30;;;;;;5012588;28;20514;-71
2023/08/25 08:19:57;;;;;;;3.60;2.80;;;28.90;63.10;;;;;;4995614;28;20498;-72
2023/08/25 08:22:23;;;;;;;3.33;2.23;;;28.90;62.40;;;;;;5076414;23;20727;-73
2023/08/25 08:24:50;;;;;;;2.53;2.20;;;28.90;62.40;;;;;;5033134;28;20398;-72
2023/08/25 08:27:16;;;;;;;4.27;2.40;;;28.90;62.40;;;;;;5033042;28;20175;-72
2023/08/25 08:29:42;;;;;;;2.87;2.57;;;28.90;62.40;;;;;;5033104;28;20399;-72
2023/08/25 08:32:09;;;;;;;5.30;2.30;;;28.90;62.40;;;;;;5032946;28;20430;-72
2023/08/25 08:34:35;;;;;;;2.40;2.10;;;28.90;62.40;;;;;;5033021;28;20811;-72
2023/08/25 08:37:01;;;;;;;2.43;2.17;;;28.90;62.40;;;;;;5032862;28;20402;-73
2023/08/25 08:39:27;;;;;;;2.20;1.90;;;28.90;62.40;;;;;;5032738;28;20402;-71
2023/08/25 08:41:53;;;;;;;2.37;2.00;;;28.90;62.40;;;;;;5032678;28;20259;-72
2023/08/25 08:44:19;;;;;;;2.43;1.97;;;28.90;62.40;;;;;;5032900;28;20762;-70
2023/08/25 08:46:47;;;;;;;2.40;2.20;;;28.90;62.40;;;;;;5032713;28;20421;-71
2023/08/25 08:49:14;;;;;;;2.90;2.60;;;28.90;62.40;;;;;;5014933;28;20215;-71
2023/08/25 08:51:42;;;;;;;2.53;2.17;;;28.90;62.40;;;;;;5032687;28;20426;-71
2023/08/25 08:54:08;;;;;;;2.07;1.73;;;28.90;62.40;;;;;;5032542;28;21058;-71
2023/08/25 08:56:35;;;;;;;2.60;1.83;;;28.80;62.30;;;;;;5032835;28;20516;-71
2023/08/25 08:59:03;;;;;;;2.10;1.80;;;28.80;62.30;;;;;;5032590;28;20241;-71
2023/08/25 09:01:30;;;;;;;2.77;2.40;;;28.80;62.30;;;;;;5032335;28;20540;-72
2023/08/25 09:04:00;;;;;;;2.30;2.10;;;28.80;62.40;;;;;;5032473;28;20537;-70
2023/08/25 09:06:28;;;;;;;2.03;1.57;;;28.80;62.30;;;;;;5032734;28;20898;-72
2023/08/25 09:08:57;;;;;;;2.30;2.10;;;28.80;62.40;;;;;;5032378;28;20432;-71
2023/08/25 09:11:23;;;;;;;2.37;2.17;;;28.80;62.40;;;;;;5032324;28;20422;-70
2023/08/25 09:13:54;;;;;;;2.10;1.90;;;28.80;62.40;;;;;;5032257;28;20790;-72
2023/08/25 09:16:21;;;;;;;2.20;1.90;;;28.80;62.40;;;;;;5032277;28;20152;-72
2023/08/25 09:18:47;;;;;;;2.70;2.10;;;28.80;62.40;;;;;;5032265;28;20410;-71
2023/08/25 09:21:20;;;;;;;2.27;2.00;;;28.80;62.40;;;;;;5032018;28;20849;-72
2023/08/25 09:24:00;;;;;;;1.77;1.67;;;28.80;62.40;;;;;;5032455;28;20178;-72
2023/08/25 09:26:27;;;;;;;2.40;1.97;;;28.80;62.40;;;;;;5032257;28;20391;-72
2023/08/25 09:28:57;;;;;;;2.23;2.03;;;28.80;62.40;;;;;;5032373;28;20830;-72
2023/08/25 09:31:27;;;;;;;3.07;2.50;;;28.80;62.40;;;;;;5014579;28;20449;-71
2023/08/25 09:34:00;;;;;;;3.00;2.30;;;28.80;62.40;;;;;;5032207;28;20415;-72
2023/08/25 09:36:26;;;;;;;2.43;2.00;;;28.80;62.40;;;;;;5032150;28;20402;-72
2023/08/25 09:38:52;;;;;;;2.53;1.80;;;28.80;62.40;;;;;;5035627;28;20505;-71
2023/08/25 09:41:28;;;;;;;2.87;2.57;;;28.80;62.40;;;;;;5035967;28;20282;-72
2023/08/25 09:43:58;;;;;;;2.60;2.00;;;28.90;62.40;;;;;;5036277;28;20191;-72
2023/08/25 09:46:33;;;;;;;2.03;1.83;;;28.80;62.40;;;;;;5036009;28;20416;-71
2023/08/25 09:49:04;;;;;;;2.27;2.07;;;28.80;62.40;;;;;;5018273;28;20410;-71
2023/08/25 09:51:39;;;;;;;2.10;1.90;;;28.80;62.40;;;;;;5036091;28;20432;-72
2023/08/25 09:54:16;;;;;;;2.60;2.37;;;28.80;62.40;;;;;;5035974;28;20401;-71
2023/08/25 09:56:44;;;;;;;2.17;1.93;;;28.80;62.40;;;;;;5018287;28;20418;-72
2023/08/25 09:59:13;;;;;;;2.50;2.30;;;28.80;62.50;;;;;;5018506;28;20969;-71
2023/08/25 10:01:43;;;;;;;3.70;2.47;;;28.80;62.40;;;;;;5035470;28;20465;-72
2023/08/25 10:04:09;;;;;;;2.63;2.37;;;28.80;62.40;;;;;;5035541;28;20414;-72
2023/08/25 10:06:39;;;;;;;2.10;1.90;;;28.80;62.40;;;;;;5035871;28;20779;-73
2023/08/25 10:09:05;;;;;;;2.47;1.90;;;28.80;62.40;;;;;;5035576;28;20954;-72
2023/08/25 10:11:38;;;;;;;2.00;1.77;;;28.80;62.40;;;;;;5035434;28;20446;-71
2023/08/25 10:14:07;;;;;;;1.77;1.60;;;28.90;62.40;;;;;;5035790;28;20497;-70
2023/08/25 10:16:49;;;;;;;2.13;1.93;;;28.80;62.30;;;;;;5035525;28;20489;-71
2023/08/25 10:19:20;;;;;;;3.60;2.40;;;28.90;62.40;;;;;;5035543;28;20455;-71
2023/08/25 10:21:49;;;;;;;2.53;1.70;;;28.80;62.40;;;;;;5035222;28;20466;-71
2023/08/25 10:24:17;;;;;;;2.10;1.90;;;28.90;62.40;;;;;;5035387;28;20718;-72
2023/08/25 10:26:44;;;;;;;2.07;1.83;;;28.80;62.40;;;;;;5035368;28;20792;-71
2023/08/25 10:29:11;;;;;;;2.43;2.23;;;28.80;62.30;;;;;;5035529;28;20426;-71
2023/08/25 10:31:47;;;;;;;2.47;2.27;;;28.90;62.40;;;;;;5035310;28;20581;-72
2023/08/25 10:34:37;;;;;;;2.10;1.80;;;28.90;62.40;;;;;;5035455;28;20413;-72
2023/08/25 10:37:10;;;;;;;2.40;2.20;;;28.90;62.40;;;;;;5035169;28;20460;-70
2023/08/25 10:39:46;;;;;;;2.00;1.80;;;28.90;62.40;;;;;;5035217;28;20391;-71
2023/08/25 10:42:12;;;;;;;2.20;1.90;;;28.90;62.40;;;;;;5034781;28;21077;-71
2023/08/25 10:44:41;;;;;;;2.70;1.90;;;28.90;63.30;;;;;;5034978;28;20838;-72
2023/08/25 10:47:08;;;;;;;2.30;2.10;;;28.90;62.40;;;;;;5034939;28;20506;-72
2023/08/25 10:49:38;;;;;;;1.87;1.77;;;28.90;62.40;;;;;;5033832;28;20414;-71
2023/08/25 10:52:19;;;;;;;2.90;2.00;;;28.90;62.40;;;;;;5034692;28;20434;-71
2023/08/25 10:54:46;;;;;;;2.27;1.80;;;28.90;62.40;;;;;;5034835;28;20461;-71
2023/08/25 10:57:25;;;;;;;2.50;2.00;;;28.90;62.40;;;;;;5034591;28;20503;-71
2023/08/25 10:59:54;;;;;;;2.03;1.83;;;28.90;62.40;;;;;;5034514;28;20473;-72
2023/08/25 11:02:36;;;;;;;2.50;2.30;;;28.80;62.30;;;;;;5032168;28;20465;-71
2023/08/25 11:05:33;;;;;;;3.30;2.30;;;28.90;62.40;;;;;;5032964;28;20415;-72
2023/08/25 11:08:02;;;;;;;2.00;1.70;;;28.90;62.40;;;;;;5016331;28;20787;-72
2023/08/25 11:10:30;;;;;;;2.10;1.90;;;28.90;62.40;;;;;;5016438;28;20492;-72
2023/08/25 11:12:59;;;;;;;2.80;1.77;;;28.80;62.40;;;;;;5016860;28;20955;-73
2023/08/25 11:15:26;;;;;;;2.47;2.27;;;28.90;63.30;;;;;;5034138;28;20820;-72
2023/08/25 11:17:51;;;;;;;2.30;2.10;;;28.90;62.40;;;;;;5034694;28;20958;-72
2023/08/25 11:20:17;;;;;;;2.90;2.20;;;28.90;62.40;;;;;;5034239;28;20506;-73
2023/08/25 11:22:53;;;;;;;1.93;1.67;;;28.90;62.40;;;;;;5034130;28;20199;-72
2023/08/25 11:25:18;;;;;;;2.57;1.97;;;28.90;62.40;;;;;;5034123;28;20164;-72
2023/08/25 11:27:51;;;;;;;2.43;2.23;;;28.90;62.40;;;;;;5016556;28;20822;-72
2023/08/25 11:30:18;;;;;;;2.10;1.90;;;28.90;62.40;;;;;;5034068;28;20172;-71
2023/08/25 11:32:51;;;;;;;1.60;1.50;;;28.90;62.40;;;;;;5015762;28;20809;-72
2023/08/25 11:35:17;;;;;;;1.93;1.73;;;28.90;62.40;;;;;;5034039;28;20906;-72
2023/08/25 11:37:46;;;;;;;1.97;1.67;;;28.90;62.40;;;;;;5034127;28;20491;-72
2023/08/25 11:40:18;;;;;;;2.00;1.90;;;28.90;62.40;;;;;;5033962;28;20460;-71
2023/08/25 11:42:43;;;;;;;3.83;2.10;;;28.90;62.40;;;;;;5016197;28;20446;-72
2023/08/25 11:45:10;;;;;;;2.77;2.10;;;28.90;63.20;;;;;;5034096;28;20406;-72
2023/08/25 11:47:37;;;;;;;3.10;2.10;;;28.90;62.40;;;;;;5033896;28;20171;-71
2023/08/25 11:50:04;;;;;;;1.70;1.60;;;28.90;62.40;;;;;;5016099;28;20422;-72
2023/08/25 11:52:32;;;;;;;2.00;1.73;;;28.90;62.40;;;;;;5033635;28;20441;-73
2023/08/25 11:54:57;;;;;;;2.00;1.80;;;28.90;62.40;;;;;;5015853;28;20963;-72
2023/08/25 11:57:35;;;;;;;2.07;1.70;;;28.90;62.40;;;;;;5033609;28;20414;-73
2023/08/25 12:00:06;;;;;;;2.30;2.03;;;28.90;62.40;;;;;;5033653;28;20625;-73
2023/08/25 12:02:32;;;;;;;2.30;1.93;;;28.90;62.40;;;;;;5033477;28;20485;-73
2023/08/25 12:05:03;;;;;;;2.00;1.90;;;28.90;62.40;;;;;;5033599;28;20780;-72
2023/08/25 12:07:31;;;;;;;1.67;1.57;;;28.90;62.40;;;;;;5033817;28;20403;-72
2023/08/25 12:10:01;;;;;;;1.60;1.50;;;28.90;62.40;;;;;;5033299;28;20416;-72
2023/08/25 12:12:31;;;;;;;1.80;1.70;;;28.90;62.40;;;;;;5033457;28;20442;-73
2023/08/25 12:14:57;;;;;;;3.93;1.97;;;28.90;62.40;;;;;;5033337;28;20435;-72
2023/08/25 12:17:27;;;;;;;2.00;1.80;;;28.90;62.40;;;;;;5033229;28;20458;-71
2023/08/25 12:19:54;;;;;;;1.67;1.57;;;28.90;62.40;;;;;;5033198;28;20168;-71
2023/08/25 12:22:20;;;;;;;2.07;1.77;;;28.90;62.40;;;;;;5033480;28;20527;-72
2023/08/25 12:24:46;;;;;;;1.67;1.53;;;28.90;62.40;;;;;;5033147;28;20462;-73
2023/08/25 12:27:12;;;;;;;2.57;1.80;;;28.90;62.40;;;;;;5033164;28;20168;-72
2023/08/25 12:29:38;;;;;;;2.00;1.80;;;28.90;62.40;;;;;;5032976;28;20444;-73
2023/08/25 12:32:04;;;;;;;2.00;1.80;;;28.90;62.40;;;;;;5033199;28;20429;-72
2023/08/25 12:34:30;;;;;;;1.77;1.67;;;28.90;62.40;;;;;;5033046;28;20667;-72
2023/08/25 12:36:56;;;;;;;2.00;1.90;;;28.90;62.40;;;;;;5032751;28;20782;-71
2023/08/25 12:39:23;;;;;;;1.90;1.70;;;28.90;62.40;;;;;;5032865;28;20406;-70
2023/08/25 12:41:48;;;;;;;2.20;2.00;;;28.90;62.50;;;;;;5032965;28;20584;-72
2023/08/25 12:44:14;;;;;;;1.73;1.60;;;28.90;62.40;;;;;;5032806;28;20435;-72
2023/08/25 12:46:40;;;;;;;1.90;1.70;;;28.90;62.50;;;;;;5032703;28;20664;-71
2023/08/25 12:49:07;;;;;;;2.20;1.80;;;28.90;62.40;;;;;;5032776;28;20176;-72